createdAt,value
2019-04-01T06:28:09.770Z,601.88
2019-04-01T06:29:09.763Z,613.12
2019-04-01T06:30:09.735Z,624.38
2019-04-01T06:31:09.745Z,635.62
2019-04-01T06:32:09.733Z,646.88
2019-04-01T06:33:09.699Z,663.75
2019-04-01T06:34:09.793Z,669.38
2019-04-01T06:35:09.731Z,680.62
2019-04-01T06:36:09.687Z,697.50
2019-04-01T06:37:09.689Z,703.12
2019-04-01T06:38:09.646Z,708.75
2019-04-01T06:39:09.637Z,725.62
2019-04-01T06:40:09.715Z,736.88
2019-04-01T06:41:09.615Z,748.12
2019-04-01T06:42:09.646Z,765.00
2019-04-01T06:43:09.590Z,776.25
2019-04-01T06:44:09.575Z,787.50
2019-04-01T06:45:09.570Z,810.00
2019-04-01T06:46:09.582Z,821.25
2019-04-01T06:47:09.625Z,832.50
2019-04-01T06:48:09.558Z,855.00
2019-04-01T06:49:09.625Z,883.12
2019-04-01T06:50:09.513Z,883.12
2019-04-01T06:51:09.497Z,871.88
2019-04-01T06:52:09.499Z,877.50
2019-04-01T06:53:09.563Z,888.75
2019-04-01T06:54:09.478Z,900.00
2019-04-01T06:55:09.589Z,916.88
2019-04-01T06:56:09.449Z,939.38
2019-04-01T06:57:09.433Z,945.00
2019-04-01T06:58:11.968Z,961.88
2019-04-01T06:59:09.478Z,984.38
2019-04-01T07:00:09.413Z,978.75
2019-04-01T07:01:09.393Z,990.00
2019-04-01T07:02:09.377Z,1035.00
2019-04-01T07:03:09.411Z,1035.00
2019-04-01T07:04:10.139Z,1035.00
2019-04-01T07:05:12.414Z,1029.38
2019-04-01T07:06:09.334Z,1023.75
2019-04-01T07:07:18.751Z,1074.38
2019-04-01T07:08:10.427Z,1080.00
2019-04-01T07:09:09.299Z,1080.00
2019-04-01T07:10:09.289Z,1125.00
2019-04-01T07:11:09.277Z,1147.50
2019-04-01T07:12:09.268Z,1147.50
2019-04-01T07:13:09.314Z,1125.00
2019-04-01T07:14:10.861Z,1108.12
2019-04-01T07:15:09.234Z,1125.00
2019-04-01T07:16:15.823Z,1153.12
2019-04-01T07:17:10.229Z,1170.00
2019-04-01T07:18:09.504Z,1170.00
2019-04-01T07:19:09.232Z,1198.12
2019-04-01T07:20:09.241Z,1231.88
2019-04-01T07:21:09.178Z,1220.62
2019-04-01T07:22:09.241Z,1186.88
2019-04-01T07:23:09.139Z,1231.88
2019-04-01T07:24:10.032Z,1288.12
2019-04-01T07:25:09.271Z,1271.25
2019-04-01T07:26:09.137Z,1254.38
2019-04-01T07:27:09.203Z,1276.88
2019-04-01T07:28:09.123Z,1316.25
2019-04-01T07:29:09.173Z,1372.50
2019-04-01T07:30:09.093Z,1372.50
2019-04-01T07:31:09.089Z,1378.12
2019-04-01T07:32:09.129Z,1389.38
2019-04-01T07:33:09.039Z,1361.25
2019-04-01T07:34:09.045Z,1378.12
2019-04-01T07:35:09.047Z,1406.25
2019-04-01T07:36:10.532Z,1400.62
2019-04-01T07:37:08.996Z,1428.75
2019-04-01T07:38:09.000Z,1490.62
2019-04-01T07:39:08.976Z,1473.75
2019-04-01T07:40:09.023Z,1451.25
2019-04-01T07:41:08.949Z,1507.50
2019-04-01T07:42:08.940Z,1530.00
2019-04-01T07:43:08.947Z,1518.75
2019-04-01T07:44:08.925Z,1513.12
2019-04-01T07:45:08.934Z,1513.12
2019-04-01T07:46:08.897Z,1530.00
2019-04-01T07:47:08.905Z,1597.50
2019-04-01T07:48:12.320Z,1631.25
2019-04-01T07:49:08.873Z,1586.25
2019-04-01T07:50:12.055Z,1580.62
2019-04-01T07:51:08.884Z,1665.00
2019-04-01T07:52:08.841Z,1665.00
2019-04-01T07:53:08.853Z,1625.62
2019-04-01T07:54:09.605Z,1625.62
2019-04-01T07:55:08.921Z,1625.62
2019-04-01T07:56:08.804Z,1625.62
2019-04-01T07:57:08.775Z,1698.75
2019-04-01T07:58:08.766Z,1715.62
2019-04-01T07:59:08.755Z,1620.00
2019-04-01T08:00:08.747Z,1575.00
2019-04-01T08:01:08.782Z,1620.00
2019-04-01T08:02:08.812Z,1721.25
2019-04-01T08:03:08.735Z,1788.75
2019-04-01T08:04:08.697Z,1794.38
2019-04-01T08:05:08.687Z,1845.00
2019-04-01T08:06:08.689Z,1918.12
2019-04-01T08:07:08.690Z,1951.88
2019-04-01T08:08:08.704Z,1867.50
2019-04-01T08:09:08.646Z,1822.50
2019-04-01T08:10:08.632Z,1805.62
2019-04-01T08:11:08.623Z,1884.38
2019-04-01T08:12:08.647Z,1946.25
2019-04-01T08:13:08.604Z,1918.12
2019-04-01T08:14:08.587Z,1890.00
2019-04-01T08:15:08.575Z,1929.38
2019-04-01T08:16:08.592Z,1957.50
2019-04-01T08:17:08.592Z,1856.25
2019-04-01T08:18:08.630Z,1963.12
2019-04-01T08:19:08.531Z,1912.50
2019-04-01T08:20:08.537Z,1895.62
2019-04-01T08:21:08.509Z,1968.75
2019-04-01T08:22:08.521Z,2019.38
2019-04-01T08:23:08.493Z,2013.75
2019-04-01T08:24:08.490Z,1996.88
2019-04-01T08:25:08.470Z,1957.50
2019-04-01T08:26:08.509Z,1980.00
2019-04-01T08:27:08.493Z,2047.50
2019-04-01T08:28:08.450Z,2092.50
2019-04-01T08:29:08.427Z,2075.62
2019-04-01T08:30:08.482Z,2041.88
2019-04-01T08:31:08.426Z,2025.00
2019-04-01T08:32:08.445Z,2036.25
2019-04-01T08:33:08.383Z,2019.38
2019-04-01T08:34:08.391Z,2008.12
2019-04-01T08:35:08.365Z,2013.75
2019-04-01T08:36:08.369Z,2025.00
2019-04-01T08:37:08.358Z,2008.12
2019-04-01T08:38:08.347Z,2025.00
2019-04-01T08:39:08.322Z,2075.62
2019-04-01T08:40:09.080Z,2165.62
2019-04-01T08:41:08.308Z,2188.12
2019-04-01T08:42:08.291Z,2103.75
2019-04-01T08:43:08.325Z,2025.00
2019-04-01T08:44:08.266Z,2120.62
2019-04-01T08:45:08.247Z,2221.88
2019-04-01T08:46:08.248Z,2295.00
2019-04-01T08:47:08.288Z,2272.50
2019-04-01T08:48:08.269Z,2295.00
2019-04-01T08:49:08.225Z,2272.50
2019-04-01T08:50:09.051Z,2317.50
2019-04-01T08:51:08.188Z,2311.88
2019-04-01T08:52:08.253Z,2340.00
2019-04-01T08:53:08.194Z,2334.38
2019-04-01T08:54:08.185Z,2328.75
2019-04-01T08:55:08.136Z,2340.00
2019-04-01T08:56:08.128Z,2311.88
2019-04-01T08:57:08.120Z,2373.75
2019-04-01T08:58:08.108Z,2295.00
2019-04-01T08:59:08.128Z,2345.62
2019-04-01T09:00:08.079Z,2407.50
2019-04-01T09:01:08.078Z,2418.75
2019-04-01T09:02:17.584Z,2356.88
2019-04-01T09:03:09.046Z,2368.12
2019-04-01T09:04:08.083Z,2401.88
2019-04-01T09:05:08.053Z,2435.62
2019-04-01T09:06:08.092Z,2531.25
2019-04-01T09:07:08.000Z,2452.50
2019-04-01T09:08:08.011Z,2379.38
2019-04-01T09:09:08.033Z,2458.12
2019-04-01T09:10:07.975Z,2508.75
2019-04-01T09:11:07.979Z,2593.12
2019-04-01T09:12:07.957Z,2503.12
2019-04-01T09:13:07.941Z,2570.62
2019-04-01T09:14:07.959Z,2626.88
2019-04-01T09:15:07.915Z,2621.25
2019-04-01T09:16:07.913Z,2677.50
2019-04-01T09:17:07.903Z,2576.25
2019-04-01T09:18:07.893Z,2621.25
2019-04-01T09:19:07.911Z,2553.75
2019-04-01T09:20:07.912Z,2497.50
2019-04-01T09:21:07.852Z,2688.75
2019-04-01T09:22:07.891Z,2643.75
2019-04-01T09:23:07.887Z,2683.12
2019-04-01T09:24:07.861Z,2812.50
2019-04-01T09:25:07.813Z,2683.12
2019-04-01T09:26:08.561Z,2694.38
2019-04-01T09:27:07.837Z,2677.50
2019-04-01T09:28:07.800Z,2632.50
2019-04-01T09:29:07.788Z,2688.75
2019-04-01T09:30:07.767Z,2570.62
2019-04-01T09:31:07.784Z,2683.12
2019-04-01T09:32:07.780Z,2812.50
2019-04-01T09:33:07.751Z,2722.50
2019-04-01T09:34:07.710Z,2790.00
2019-04-01T09:35:07.749Z,2778.75
2019-04-01T09:36:07.696Z,2542.50
2019-04-01T09:37:07.693Z,2638.12
2019-04-01T09:38:07.686Z,2626.88
2019-04-01T09:39:07.660Z,2632.50
2019-04-01T09:40:07.650Z,2829.38
2019-04-01T09:41:07.656Z,2722.50
2019-04-01T09:42:07.652Z,2581.88
2019-04-01T09:43:07.629Z,2767.50
2019-04-01T09:44:07.597Z,2716.88
2019-04-01T09:45:07.620Z,2812.50
2019-04-01T09:46:07.637Z,2902.50
2019-04-01T09:47:07.564Z,2801.25
2019-04-01T09:48:07.556Z,2784.38
2019-04-01T09:49:08.065Z,2908.12
2019-04-01T09:50:08.222Z,2823.75
2019-04-01T09:51:07.539Z,2857.50
2019-04-01T09:52:07.842Z,2908.12
2019-04-01T09:53:07.531Z,2756.25
2019-04-01T09:54:07.497Z,2896.88
2019-04-01T09:55:07.492Z,3037.50
2019-04-01T09:56:07.476Z,2868.75
2019-04-01T09:57:17.307Z,2981.25
2019-04-01T09:58:08.538Z,3015.00
2019-04-01T09:59:07.454Z,2835.00
2019-04-01T10:00:07.433Z,2925.00
2019-04-01T10:01:07.451Z,3015.00
2019-04-01T10:02:07.430Z,2947.50
2019-04-01T10:03:07.409Z,2958.75
2019-04-01T10:04:07.390Z,3099.38
2019-04-01T10:05:07.378Z,2964.38
2019-04-01T10:06:10.297Z,2823.75
2019-04-01T10:07:07.379Z,2941.88
2019-04-01T10:08:07.342Z,3031.88
2019-04-01T10:09:07.326Z,2986.88
2019-04-01T10:10:07.334Z,3043.12
2019-04-01T10:11:07.318Z,3015.00
2019-04-01T10:12:07.334Z,2953.12
2019-04-01T10:13:07.330Z,3060.00
2019-04-01T10:14:07.271Z,3116.25
2019-04-01T10:15:07.317Z,2970.00
2019-04-01T10:16:07.252Z,3043.12
2019-04-01T10:17:07.238Z,3099.38
2019-04-01T10:18:07.288Z,2818.12
2019-04-01T10:19:07.238Z,2761.88
2019-04-01T10:20:07.281Z,2896.88
2019-04-01T10:21:07.192Z,2975.62
2019-04-01T10:22:07.184Z,3144.38
2019-04-01T10:23:07.236Z,3262.50
2019-04-01T10:24:07.170Z,3099.38
2019-04-01T10:25:07.155Z,3026.25
2019-04-01T10:26:07.146Z,3211.88
2019-04-01T10:27:07.142Z,3285.00
2019-04-01T10:28:07.152Z,3240.00
2019-04-01T10:29:07.115Z,3273.75
2019-04-01T10:30:07.151Z,3155.62
2019-04-01T10:31:07.092Z,2964.38
2019-04-01T10:32:07.081Z,2958.75
2019-04-01T10:33:07.108Z,3189.38
2019-04-01T10:34:07.064Z,3144.38
2019-04-01T10:35:07.048Z,2908.12
2019-04-01T10:36:07.038Z,3065.62
2019-04-01T10:37:07.102Z,3256.88
2019-04-01T10:38:07.098Z,3150.00
2019-04-01T10:39:07.024Z,3082.50
2019-04-01T10:40:07.000Z,3290.62
2019-04-01T10:41:06.998Z,3195.00
2019-04-01T10:42:07.021Z,3121.88
2019-04-01T10:43:06.957Z,3386.25
2019-04-01T10:44:06.986Z,3268.12
2019-04-01T10:45:06.941Z,2958.75
2019-04-01T10:46:06.943Z,2998.12
2019-04-01T10:47:06.935Z,3223.12
2019-04-01T10:48:07.039Z,3465.00
2019-04-01T10:49:06.973Z,3240.00
2019-04-01T10:50:06.989Z,3268.12
2019-04-01T10:51:06.910Z,3560.62
2019-04-01T10:52:06.958Z,3436.88
2019-04-01T10:53:06.945Z,3217.50
2019-04-01T10:54:06.882Z,3369.38
2019-04-01T10:55:06.925Z,3526.88
2019-04-01T10:56:06.832Z,3200.62
2019-04-01T10:57:06.827Z,3020.62
2019-04-01T10:58:06.799Z,3206.25
2019-04-01T10:59:06.838Z,3375.00
2019-04-01T11:00:06.952Z,3240.00
2019-04-01T11:01:06.808Z,3099.38
2019-04-01T11:02:06.755Z,3307.50
2019-04-01T11:03:06.881Z,3414.38
2019-04-01T11:04:06.762Z,3206.25
2019-04-01T11:05:06.879Z,3195.00
2019-04-01T11:06:06.718Z,3465.00
2019-04-01T11:07:06.711Z,3425.62
2019-04-01T11:08:06.724Z,3172.50
2019-04-01T11:09:06.770Z,3116.25
2019-04-01T11:10:06.861Z,3380.62
2019-04-01T11:11:06.712Z,3442.50
2019-04-01T11:12:06.717Z,3217.50
2019-04-01T11:13:06.697Z,3251.25
2019-04-01T11:14:06.674Z,3498.75
2019-04-01T11:15:06.776Z,3380.62
2019-04-01T11:16:08.607Z,3082.50
2019-04-01T11:17:07.856Z,3217.50
2019-04-01T11:18:06.590Z,3442.50
2019-04-01T11:19:06.600Z,3251.25
2019-04-01T11:20:08.082Z,3043.12
2019-04-01T11:21:06.595Z,3133.12
2019-04-01T11:22:06.569Z,3369.38
2019-04-01T11:23:06.538Z,3301.88
2019-04-01T11:24:07.756Z,3099.38
2019-04-01T11:25:06.575Z,3189.38
2019-04-01T11:26:06.499Z,3397.50
2019-04-01T11:27:06.527Z,3436.88
2019-04-01T11:28:06.478Z,3206.25
2019-04-01T11:29:06.469Z,3043.12
2019-04-01T11:30:07.803Z,3116.25
2019-04-01T11:31:06.480Z,3116.25
2019-04-01T11:32:07.595Z,3155.62
2019-04-01T11:33:07.844Z,3391.88
2019-04-01T11:34:06.456Z,3611.25
2019-04-01T11:35:06.442Z,3583.12
2019-04-01T11:36:06.407Z,3301.88
2019-04-01T11:37:06.483Z,3352.50
2019-04-01T11:38:06.434Z,3510.00
2019-04-01T11:39:06.418Z,3397.50
2019-04-01T11:40:11.077Z,3200.62
2019-04-01T11:41:07.345Z,3251.25
2019-04-01T11:42:06.348Z,3420.00
2019-04-01T11:43:06.368Z,3555.00
2019-04-01T11:44:06.332Z,3346.88
2019-04-01T11:45:06.322Z,3369.38
2019-04-01T11:46:06.475Z,3543.75
2019-04-01T11:47:06.281Z,3571.88
2019-04-01T11:48:08.304Z,3223.12
2019-04-01T11:49:06.288Z,3105.00
2019-04-01T11:50:06.300Z,3403.12
2019-04-01T11:51:06.253Z,3526.88
2019-04-01T11:52:06.221Z,3307.50
2019-04-01T11:53:06.979Z,3290.62
2019-04-01T11:54:08.135Z,3391.88
2019-04-01T11:55:09.178Z,3459.38
2019-04-01T11:56:07.121Z,3318.75
2019-04-01T11:57:06.182Z,3245.62
2019-04-01T11:58:06.243Z,3296.25
2019-04-01T11:59:06.153Z,3425.62
2019-04-01T12:00:06.133Z,3195.00
2019-04-01T12:01:06.126Z,3088.12
2019-04-01T12:02:06.112Z,3105.00
2019-04-01T12:03:06.110Z,3510.00
2019-04-01T12:04:06.120Z,3420.00
2019-04-01T12:05:06.208Z,3121.88
2019-04-01T12:06:06.080Z,3133.12
2019-04-01T12:07:06.076Z,3436.88
2019-04-01T12:08:06.045Z,3408.75
2019-04-01T12:09:06.119Z,3071.25
2019-04-01T12:10:07.665Z,2823.75
2019-04-01T12:11:06.041Z,2981.25
2019-04-01T12:12:06.007Z,3211.88
2019-04-01T12:13:06.000Z,3386.25
2019-04-01T12:14:06.033Z,3234.38
2019-04-01T12:15:05.996Z,3211.88
2019-04-01T12:16:06.868Z,3375.00
2019-04-01T12:17:05.952Z,3448.12
2019-04-01T12:18:05.944Z,3363.75
2019-04-01T12:19:06.304Z,2981.25
2019-04-01T12:20:05.957Z,3043.12
2019-04-01T12:21:05.915Z,3318.75
2019-04-01T12:22:07.640Z,3352.50
2019-04-01T12:23:05.889Z,3099.38
2019-04-01T12:24:05.910Z,3037.50
2019-04-01T12:25:05.919Z,3200.62
2019-04-01T12:26:15.133Z,3363.75
2019-04-01T12:27:06.849Z,3285.00
2019-04-01T12:28:05.838Z,3155.62
2019-04-01T12:29:06.729Z,3217.50
2019-04-01T12:30:05.863Z,3380.62
2019-04-01T12:31:05.801Z,3240.00
2019-04-01T12:32:05.799Z,2896.88
2019-04-01T12:33:05.780Z,2857.50
2019-04-01T12:34:05.777Z,3093.75
2019-04-01T12:35:05.830Z,3369.38
2019-04-01T12:36:05.761Z,3178.12
2019-04-01T12:37:05.778Z,2902.50
2019-04-01T12:38:05.728Z,2857.50
2019-04-01T12:39:05.714Z,3071.25
2019-04-01T12:40:05.779Z,3211.88
2019-04-01T12:41:05.697Z,3408.75
2019-04-01T12:42:05.692Z,3217.50
2019-04-01T12:43:05.792Z,3093.75
2019-04-01T12:44:05.679Z,3150.00
2019-04-01T12:45:05.711Z,3228.75
2019-04-01T12:46:05.642Z,3043.12
2019-04-01T12:47:05.630Z,2964.38
2019-04-01T12:48:05.636Z,3054.38
2019-04-01T12:49:05.614Z,3341.25
2019-04-01T12:50:06.643Z,3335.62
2019-04-01T12:51:05.600Z,3211.88
2019-04-01T12:52:05.592Z,3031.88
2019-04-01T12:53:05.576Z,3105.00
2019-04-01T12:54:05.558Z,3268.12
2019-04-01T12:55:05.579Z,3178.12
2019-04-01T12:56:05.536Z,3065.62
2019-04-01T12:57:05.571Z,2812.50
2019-04-01T12:58:05.864Z,2857.50
2019-04-01T12:59:05.508Z,3138.75
2019-04-01T13:00:05.819Z,3105.00
2019-04-01T13:01:05.513Z,2964.38
2019-04-01T13:02:05.510Z,2880.00
2019-04-01T13:03:05.482Z,2970.00
2019-04-01T13:04:05.441Z,3133.12
2019-04-01T13:05:05.571Z,3133.12
2019-04-01T13:06:05.449Z,2964.38
2019-04-01T13:07:05.490Z,2801.25
2019-04-01T13:08:05.437Z,2902.50
2019-04-01T13:09:05.395Z,3088.12
2019-04-01T13:10:05.381Z,3026.25
2019-04-01T13:11:05.387Z,2812.50
2019-04-01T13:12:05.377Z,2626.88
2019-04-01T13:13:05.390Z,2666.25
2019-04-01T13:14:05.334Z,2868.75
2019-04-01T13:15:05.325Z,3015.00
2019-04-01T13:16:08.778Z,2986.88
2019-04-01T13:17:05.305Z,2801.25
2019-04-01T13:18:05.308Z,2784.38
2019-04-01T13:19:05.288Z,2896.88
2019-04-01T13:20:08.134Z,2986.88
2019-04-01T13:21:05.263Z,2958.75
2019-04-01T13:22:05.300Z,2823.75
2019-04-01T13:23:05.236Z,2722.50
2019-04-01T13:24:05.398Z,2835.00
2019-04-01T13:25:05.759Z,2941.88
2019-04-01T13:26:05.271Z,2913.75
2019-04-01T13:27:09.222Z,2818.12
2019-04-01T13:28:05.199Z,2745.00
2019-04-01T13:29:05.184Z,2745.00
2019-04-01T13:30:05.159Z,2863.12
2019-04-01T13:31:05.162Z,2908.12
2019-04-01T13:32:07.190Z,2733.75
2019-04-01T13:33:05.133Z,2576.25
2019-04-01T13:34:05.215Z,2536.88
2019-04-01T13:35:05.109Z,2491.88
2019-04-01T13:36:07.835Z,2508.75
2019-04-01T13:37:05.118Z,2570.62
2019-04-01T13:38:05.067Z,2615.62
2019-04-01T13:39:05.079Z,2553.75
2019-04-01T13:40:05.053Z,2598.75
2019-04-01T13:41:05.058Z,2733.75
2019-04-01T13:42:05.027Z,2722.50
2019-04-01T13:43:05.059Z,2593.12
2019-04-01T13:44:08.547Z,2491.88
2019-04-01T13:45:05.010Z,2503.12
2019-04-01T13:46:04.996Z,2615.62
2019-04-01T13:47:04.989Z,2666.25
2019-04-01T13:48:05.023Z,2688.75
2019-04-01T13:49:05.005Z,2688.75
2019-04-01T13:50:04.938Z,2570.62
2019-04-01T13:51:05.638Z,2396.25
2019-04-01T13:52:04.929Z,2272.50
2019-04-01T13:53:04.930Z,2295.00
2019-04-01T13:54:09.055Z,2407.50
2019-04-01T13:55:05.887Z,2373.75
2019-04-01T13:56:04.897Z,2373.75
2019-04-01T13:57:04.873Z,2413.12
2019-04-01T13:58:04.882Z,2508.75
2019-04-01T13:59:04.867Z,2491.88
2019-04-01T14:00:04.838Z,2407.50
2019-04-01T14:01:04.821Z,2351.25
2019-04-01T14:02:04.812Z,2334.38
2019-04-01T14:03:04.797Z,2340.00
2019-04-01T14:04:04.809Z,2362.50
2019-04-01T14:05:06.288Z,2413.12
2019-04-01T14:06:04.766Z,2390.62
2019-04-01T14:07:05.000Z,2334.38
2019-04-01T14:08:06.009Z,2340.00
2019-04-01T14:09:05.083Z,2334.38
2019-04-01T14:10:04.721Z,2261.25
2019-04-01T14:11:06.076Z,2193.75
2019-04-01T14:12:04.698Z,2171.25
2019-04-01T14:13:04.778Z,2126.25
2019-04-01T14:14:04.693Z,2109.38
2019-04-01T14:15:04.662Z,2193.75
2019-04-01T14:16:04.665Z,2266.88
2019-04-01T14:17:04.709Z,2266.88
2019-04-01T14:18:04.662Z,2244.38
2019-04-01T14:19:04.679Z,2221.88
2019-04-01T14:20:04.613Z,2210.62
2019-04-01T14:21:15.878Z,2176.88
2019-04-01T14:22:05.591Z,2131.88
2019-04-01T14:23:04.586Z,2143.12
2019-04-01T14:24:04.580Z,2154.38
2019-04-01T14:25:07.306Z,2081.25
2019-04-01T14:26:04.580Z,2053.12
2019-04-01T14:27:04.555Z,2092.50
2019-04-01T14:28:04.541Z,2109.38
2019-04-01T14:29:04.518Z,2103.75
2019-04-01T14:30:05.695Z,2098.12
2019-04-01T14:31:05.255Z,2053.12
2019-04-01T14:32:04.783Z,2047.50
2019-04-01T14:33:04.465Z,2036.25
2019-04-01T14:34:06.422Z,1980.00
2019-04-01T14:35:04.673Z,1991.25
2019-04-01T14:36:04.862Z,2041.88
2019-04-01T14:37:04.956Z,2081.25
2019-04-01T14:38:04.413Z,2092.50
2019-04-01T14:39:04.407Z,2075.62
2019-04-01T14:40:04.385Z,2030.62
2019-04-01T14:41:04.400Z,1991.25
2019-04-01T14:42:04.374Z,1980.00
2019-04-01T14:43:04.359Z,1974.38
2019-04-01T14:44:04.354Z,1980.00
2019-04-01T14:45:05.878Z,1963.12
2019-04-01T14:46:05.810Z,1895.62
2019-04-01T14:47:04.326Z,1873.12
2019-04-01T14:48:06.693Z,1878.75
2019-04-01T14:49:04.293Z,1867.50
2019-04-01T14:50:07.536Z,1822.50
2019-04-01T14:51:04.317Z,1794.38
2019-04-01T14:52:04.265Z,1788.75
2019-04-01T14:53:04.251Z,1816.88
2019-04-01T14:54:05.891Z,1811.25
2019-04-01T14:55:04.230Z,1833.75
2019-04-01T14:56:04.228Z,1861.88
2019-04-01T14:57:04.224Z,1856.25
2019-04-01T14:58:04.194Z,1833.75
2019-04-01T14:59:04.181Z,1777.50
2019-04-01T15:00:04.204Z,1771.88
2019-04-01T15:01:04.151Z,1783.12
2019-04-01T15:02:04.182Z,1721.25
2019-04-01T15:03:04.147Z,1693.12
2019-04-01T15:04:04.129Z,1648.12
2019-04-01T15:05:04.984Z,1608.75
2019-04-01T15:06:04.097Z,1648.12
2019-04-01T15:07:04.089Z,1687.50
2019-04-01T15:08:04.101Z,1659.38
2019-04-01T15:09:04.090Z,1631.25
2019-04-01T15:10:04.069Z,1636.88
2019-04-01T15:11:04.057Z,1665.00
2019-04-01T15:12:04.053Z,1631.25
2019-04-01T15:13:05.985Z,1603.12
2019-04-01T15:14:04.025Z,1586.25
2019-04-01T15:15:04.406Z,1490.62
2019-04-01T15:16:04.069Z,1395.00
2019-04-01T15:17:04.008Z,1434.38
2019-04-01T15:18:04.750Z,1513.12
2019-04-01T15:19:03.960Z,1524.38
2019-04-01T15:20:03.963Z,1513.12
2019-04-01T15:21:03.941Z,1501.88
2019-04-01T15:22:03.930Z,1513.12
2019-04-01T15:23:03.954Z,1490.62
2019-04-01T15:24:03.921Z,1485.00
2019-04-01T15:25:03.949Z,1490.62
2019-04-01T15:26:04.068Z,1468.12
2019-04-01T15:27:04.017Z,1428.75
2019-04-01T15:28:03.885Z,1400.62
2019-04-01T15:29:03.887Z,1406.25
2019-04-01T15:30:03.840Z,1389.38
2019-04-01T15:31:03.833Z,1316.25
2019-04-01T15:32:03.833Z,1293.75
2019-04-01T15:33:03.829Z,1327.50
2019-04-01T15:34:03.820Z,1350.00
2019-04-01T15:35:03.807Z,1333.12
2019-04-01T15:36:04.272Z,1316.25
2019-04-01T15:37:03.762Z,1310.62
2019-04-01T15:38:03.794Z,1299.38
2019-04-01T15:39:03.761Z,1288.12
2019-04-01T15:40:03.739Z,1293.75
2019-04-01T15:41:03.727Z,1305.00
2019-04-01T15:42:03.717Z,1288.12
2019-04-01T15:43:03.701Z,1276.88
2019-04-01T15:44:03.727Z,1248.75
2019-04-01T15:45:03.697Z,1243.12
2019-04-01T15:46:04.181Z,1220.62
2019-04-01T15:47:04.617Z,1198.12
2019-04-01T15:48:03.643Z,1175.62
2019-04-01T15:49:03.629Z,1153.12
2019-04-01T15:50:03.666Z,1158.75
2019-04-01T15:51:03.605Z,1136.25
2019-04-01T15:52:03.613Z,1096.88
2019-04-01T15:53:03.587Z,1091.25
2019-04-01T15:54:04.430Z,1085.62
2019-04-01T15:55:03.586Z,1080.00
2019-04-01T15:56:03.593Z,1080.00
2019-04-01T15:57:03.544Z,1051.88
2019-04-01T15:58:03.553Z,1012.50
2019-04-01T15:59:03.538Z,995.62
2019-04-01T16:00:03.710Z,1012.50
2019-04-01T16:01:03.522Z,995.62
2019-04-01T16:02:03.571Z,978.75
2019-04-01T16:03:03.479Z,967.50
2019-04-01T16:04:03.474Z,973.12
2019-04-01T16:05:03.457Z,956.25
2019-04-01T16:06:03.463Z,911.25
2019-04-01T16:07:03.429Z,900.00
2019-04-01T16:08:03.431Z,905.62
2019-04-01T16:09:03.415Z,888.75
2019-04-01T16:10:03.405Z,871.88
2019-04-01T16:11:03.481Z,855.00
2019-04-01T16:12:03.382Z,843.75
2019-04-01T16:13:03.391Z,860.62
2019-04-01T16:14:03.361Z,849.38
2019-04-01T16:15:03.346Z,826.88
2019-04-01T16:16:03.339Z,826.88
2019-04-01T16:17:05.208Z,826.88
2019-04-01T16:18:03.313Z,804.38
2019-04-01T16:19:03.326Z,793.12
2019-04-01T16:20:03.296Z,765.00
2019-04-01T16:21:03.291Z,742.50
2019-04-01T16:22:03.357Z,714.38
2019-04-01T16:23:03.265Z,691.88
2019-04-01T16:24:03.242Z,703.12
2019-04-01T16:25:03.236Z,703.12
2019-04-01T16:26:03.221Z,697.50
2019-04-01T16:27:03.249Z,663.75
2019-04-01T16:28:03.266Z,663.75
2019-04-01T16:29:03.220Z,658.12
2019-04-01T16:30:03.183Z,641.25
2019-04-01T16:31:03.187Z,624.38
2019-04-01T16:32:03.197Z,613.12
2019-04-01T16:33:03.151Z,596.25
2019-04-01T16:34:03.151Z,585.00
2019-04-01T16:35:03.127Z,573.75
2019-04-01T16:36:03.131Z,556.88
2019-04-01T16:37:03.135Z,551.25
2019-04-01T16:38:03.090Z,540.00
2019-04-01T16:39:03.083Z,540.00
2019-04-01T16:40:05.805Z,528.75
2019-04-01T16:41:03.063Z,517.50
2019-04-01T16:42:03.086Z,511.88
2019-04-01T16:43:03.041Z,517.50
2019-04-01T16:44:03.021Z,517.50
2019-04-01T16:45:03.016Z,523.12
2019-04-01T16:46:03.017Z,517.50
2019-04-01T16:47:02.997Z,511.88
2019-04-01T16:48:03.007Z,506.25
2019-04-01T16:49:02.971Z,495.00
2019-04-01T16:50:03.014Z,495.00
2019-04-01T16:51:03.209Z,511.88
2019-04-01T16:52:02.943Z,517.50
2019-04-01T16:53:02.963Z,511.88
2019-04-01T16:54:02.916Z,511.88
2019-04-01T16:55:02.910Z,534.38
2019-04-01T16:56:02.891Z,573.75
2019-04-01T16:57:02.893Z,624.38
2019-04-01T16:58:03.187Z,618.75
2019-04-01T16:59:02.886Z,556.88
2019-04-01T17:00:02.863Z,472.50
2019-04-01T17:01:02.869Z,427.50
2019-04-01T17:02:17.049Z,388.12
2019-04-01T17:03:03.871Z,371.25
2019-04-01T17:04:02.823Z,354.38
2019-04-01T17:05:02.803Z,337.50
2019-04-01T17:06:02.789Z,309.38
2019-04-01T17:07:02.784Z,298.12
2019-04-01T17:08:02.769Z,286.88
2019-04-01T17:09:02.803Z,286.88
2019-04-01T17:10:03.273Z,275.62
2019-04-01T17:11:02.733Z,258.75
2019-04-01T17:12:02.721Z,247.50
2019-04-01T17:13:02.728Z,241.88
2019-04-01T17:14:02.725Z,236.25
2019-04-01T17:15:03.641Z,236.25
2019-04-01T17:16:02.671Z,230.62
2019-04-01T17:17:02.662Z,230.62
2019-04-01T17:18:02.655Z,219.38
2019-04-01T17:19:02.673Z,208.12
2019-04-01T17:20:02.638Z,202.50
2019-04-01T17:21:05.042Z,191.25
2019-04-01T17:22:03.077Z,185.62
2019-04-01T17:23:02.598Z,180.00
2019-04-01T17:24:02.638Z,180.00
2019-04-01T17:25:02.572Z,180.00
2019-04-01T17:26:02.572Z,180.00
2019-04-01T17:27:02.559Z,174.38
2019-04-01T17:28:02.550Z,163.12
2019-04-01T17:29:02.573Z,157.50
2019-04-01T17:30:02.559Z,151.88
2019-04-01T17:31:02.511Z,151.88
2019-04-01T17:32:02.504Z,146.25
2019-04-01T17:33:02.501Z,140.62
2019-04-01T17:34:02.485Z,135.00
2019-04-01T17:35:02.507Z,129.38
2019-04-01T17:36:02.478Z,123.75
2019-04-01T17:37:02.448Z,118.12
2019-04-01T17:38:02.437Z,118.12
2019-04-01T17:39:02.424Z,112.50
2019-04-01T17:40:02.463Z,112.50
2019-04-01T17:41:02.409Z,101.25
2019-04-01T17:42:02.403Z,101.25
2019-04-01T17:43:02.379Z,95.62
2019-04-01T17:44:02.369Z,90.00
2019-04-01T17:45:02.366Z,84.38
2019-04-01T17:46:02.374Z,84.38
2019-04-01T17:47:02.331Z,78.75
2019-04-01T17:48:02.320Z,73.12
2019-04-01T17:49:02.413Z,67.50
2019-04-01T17:50:02.299Z,61.88
2019-04-01T17:51:02.307Z,61.88
2019-04-01T17:52:04.330Z,56.25
2019-04-01T17:53:02.275Z,50.62
2019-04-01T17:54:02.255Z,45.00
2019-04-01T17:55:02.243Z,39.38
2019-04-01T17:56:02.256Z,39.38
2019-04-01T17:57:02.236Z,33.75
2019-04-01T17:58:02.226Z,28.12
2019-04-01T17:59:02.361Z,28.12
2019-04-01T18:00:02.193Z,22.50
2019-04-01T18:01:02.217Z,22.50
2019-04-01T18:02:02.165Z,16.88
2019-04-01T18:03:02.161Z,16.88
2019-04-01T18:04:02.479Z,16.88
2019-04-01T18:05:02.139Z,11.25
2019-04-01T18:06:02.204Z,11.25
2019-04-01T18:07:02.130Z,11.25
2019-04-01T18:08:02.106Z,11.25
2019-04-01T18:09:02.156Z,5.62
2019-04-01T18:10:02.076Z,5.62
2019-04-01T18:11:02.090Z,5.62
2019-04-01T18:12:02.062Z,5.62
2019-04-01T18:13:02.048Z,5.62
2019-04-01T18:14:02.974Z,5.62
2019-04-01T18:15:02.024Z,0.00
2019-04-01T18:16:02.031Z,0.00
2019-04-01T18:17:02.004Z,0.00
2019-04-01T18:18:01.987Z,0.00
2019-04-01T18:19:01.985Z,0.00
2019-04-01T18:20:01.991Z,0.00
2019-04-01T18:21:03.314Z,0.00
2019-04-01T18:22:01.953Z,0.00
2019-04-01T18:23:01.932Z,0.00
2019-04-01T18:24:01.927Z,0.00
2019-04-01T18:25:01.918Z,0.00
2019-04-01T18:26:01.916Z,0.00
2019-04-01T18:27:01.942Z,0.00
2019-04-01T18:28:01.898Z,0.00
2019-04-01T18:29:01.870Z,0.00
2019-04-01T18:30:01.872Z,0.00
2019-04-01T18:31:01.846Z,0.00
2019-04-01T18:32:02.375Z,0.00
2019-04-01T18:33:01.829Z,0.00
2019-04-01T18:34:01.819Z,0.00
2019-04-01T18:35:03.960Z,0.00
2019-04-01T18:36:01.812Z,0.00
2019-04-01T18:37:01.805Z,0.00
2019-04-01T18:38:01.774Z,0.00
2019-04-01T18:39:03.970Z,0.00
2019-04-01T18:40:01.761Z,0.00
2019-04-01T18:41:01.745Z,0.00
2019-04-01T18:42:02.902Z,0.00